If you wish to contribute or participate in the discussions about articles you are invited to join SKYbrary as a registered user

 Actions

Abbotsford International Airport

From SKYbrary Wiki

CYXX /
Revision as of 17:07, 2 December 2012 by Editor2 (talk | contribs) (Created page with "{{Airport |Airport_Name=Abbotsford International Airport |ICAO_Region=NAM |ICAO_Territory=C |Location=Abbotsford, British Columbia, Canada |Coordinates=49.025278, -122.3633330000...")
(diff) ← Older revision | Latest revision (diff) | Newer revision → (diff)
Airport
ICAO: CYXX
Summary
Name Abbotsford International Airport
Region North America
Territory Canada CA.gif
Location Abbotsford, British Columbia, Canada
Serving
Coordinates 49° 1' 31.00" N, 122° 21' 48.00" W
Runways
Designator Length Width Surface ROPS
1/19 1624 m5,328.084 ft
61 m200.131 ft
ASP yes/yes
01L/19R 457 m1,499.344 ft
30 m98.425 ft
GRS /
7/25 2926 m9,599.738 ft
61 m200.131 ft
PEM yes/yes


METAR
Observation CYXX 260600Z 02002KT 15SM FEW130 FEW180 FEW230 SCT250 00/M04 A3054 RMK AC1AC1CI1CS1 CI TR SLP346
Station Abbotsford, B. C.
Date/Time 26 October 2020 06:00:00
Wind direction 20°
Wind speed 02 kts
Lowest cloud amount few clouds
Temperature 0°C
Dew point
Humidity 74%
QNH hPa
Weather condition n/a

BS
Tag(s) Bird Strike
WX
Tag(s) Fog